Rockbridge, Georgia
Current Conditions -  °F | °C
As of 1:53 PM on Thursday 27 Nov 2014 (Local Time) from KPDK Reporting Station
Overcast Overcast  
Wind Chill: 37°   Ceiling: 4100
Heat Index: 44°   Visibility: 10mi
Dew Point: 26°   Wind: 15mph
Humidity: 49%   Direction: 320°NW
Pressure: 30.28"   Gusts: 25mph
Location:  33.909°N, 84.1771°W
Report Text: KPDK 271853Z 32013G22KT 10SM OVC041 07/M03 A3028 RMK AO2 SLP260 T00671033
Loading
Personal Weather Stations






























Interactive Weather Map New forecast layout! Learn more

10-Day Weather Forecast

Advertisements
Track Severe Weather on mobile